createdAt,value
2022-12-31T00:01:19.526Z,6.80
2022-12-31T00:03:47.037Z,6.80
2022-12-31T00:06:30.315Z,6.80
2022-12-31T00:09:02.869Z,6.80
2022-12-31T00:11:30.710Z,6.80
2022-12-31T00:13:58.293Z,6.90
2022-12-31T00:16:29.676Z,6.90
2022-12-31T00:18:58.745Z,6.90
2022-12-31T00:21:28.279Z,6.90
2022-12-31T00:23:58.380Z,6.90
2022-12-31T00:26:28.429Z,7.00
2022-12-31T00:28:57.305Z,7.00
2022-12-31T00:31:30.329Z,7.00
2022-12-31T00:33:58.733Z,7.10
2022-12-31T00:36:27.838Z,7.10
2022-12-31T00:38:56.437Z,7.10
2022-12-31T00:41:25.205Z,7.10
2022-12-31T00:43:52.604Z,7.10
2022-12-31T00:46:23.035Z,7.10
2022-12-31T00:48:52.831Z,7.00
2022-12-31T00:51:24.509Z,7.00
2022-12-31T00:53:54.671Z,7.00
2022-12-31T00:56:24.752Z,7.00
2022-12-31T00:58:54.458Z,7.00
2022-12-31T01:01:26.773Z,7.00
2022-12-31T01:03:58.289Z,7.00
2022-12-31T01:06:26.322Z,7.00
2022-12-31T01:08:53.972Z,7.00
2022-12-31T01:11:24.874Z,6.90
2022-12-31T01:14:01.884Z,7.00
2022-12-31T01:16:32.837Z,6.90
2022-12-31T01:19:06.428Z,7.00
2022-12-31T01:21:35.771Z,7.00
2022-12-31T01:24:06.448Z,7.00
2022-12-31T01:26:36.694Z,7.00
2022-12-31T01:29:07.936Z,7.00
2022-12-31T01:31:36.102Z,7.10
2022-12-31T01:34:05.941Z,7.00
2022-12-31T01:36:34.943Z,7.00
2022-12-31T01:39:04.471Z,6.90
2022-12-31T01:41:38.685Z,6.90
2022-12-31T01:44:11.751Z,6.90
2022-12-31T01:46:44.160Z,6.90
2022-12-31T01:49:31.854Z,6.90
2022-12-31T01:52:10.254Z,6.90
2022-12-31T01:54:55.673Z,6.90
2022-12-31T01:57:25.787Z,6.80
2022-12-31T01:59:56.485Z,6.80
2022-12-31T02:02:24.259Z,6.80
2022-12-31T02:04:57.037Z,6.70
2022-12-31T02:07:24.711Z,6.70
2022-12-31T02:09:53.692Z,6.70
2022-12-31T02:12:21.551Z,6.70
2022-12-31T02:14:52.521Z,6.70
2022-12-31T02:17:25.817Z,6.60
2022-12-31T02:20:11.726Z,6.60
2022-12-31T02:23:06.171Z,6.60
2022-12-31T02:25:39.333Z,6.60
2022-12-31T02:28:28.373Z,6.60
2022-12-31T02:31:04.458Z,6.60
2022-12-31T02:33:59.225Z,6.60
2022-12-31T02:36:30.325Z,6.60
2022-12-31T02:38:58.542Z,6.60
2022-12-31T02:41:25.574Z,6.60
2022-12-31T02:43:55.635Z,6.60
2022-12-31T02:46:33.092Z,6.70
2022-12-31T02:49:27.926Z,6.70
2022-12-31T02:51:58.963Z,6.70
2022-12-31T02:54:42.957Z,6.70
2022-12-31T02:57:32.445Z,6.70
2022-12-31T03:03:08.941Z,6.90
2022-12-31T03:05:44.835Z,6.90
2022-12-31T03:08:12.079Z,7.00
2022-12-31T03:10:39.593Z,7.00
2022-12-31T03:13:06.593Z,7.00
2022-12-31T03:15:36.784Z,7.00
2022-12-31T03:18:15.530Z,7.10
2022-12-31T03:20:48.756Z,7.10
2022-12-31T03:23:22.815Z,7.20
2022-12-31T03:25:53.406Z,7.20
2022-12-31T03:28:22.786Z,7.20
2022-12-31T03:30:57.395Z,7.30
2022-12-31T03:33:31.218Z,7.30
2022-12-31T03:35:58.833Z,7.40
2022-12-31T03:38:26.089Z,7.40
2022-12-31T03:40:54.540Z,7.50
2022-12-31T03:43:21.994Z,7.50
2022-12-31T03:45:53.410Z,7.50
2022-12-31T03:48:23.750Z,7.50
2022-12-31T03:50:51.738Z,7.50
2022-12-31T03:53:19.109Z,7.50
2022-12-31T03:55:52.944Z,7.50
2022-12-31T03:58:20.838Z,7.60
2022-12-31T04:00:48.567Z,7.60
2022-12-31T04:03:15.724Z,7.60
2022-12-31T04:05:51.544Z,7.60
2022-12-31T04:08:18.816Z,7.70
2022-12-31T04:10:46.392Z,7.80
2022-12-31T04:13:13.423Z,7.80
2022-12-31T04:15:43.212Z,7.80
2022-12-31T04:18:10.426Z,7.90
2022-12-31T04:20:37.792Z,7.90
2022-12-31T04:23:07.367Z,7.90
2022-12-31T04:25:37.318Z,7.90
2022-12-31T04:28:09.189Z,7.90
2022-12-31T04:30:36.744Z,7.90
2022-12-31T04:33:03.797Z,7.80
2022-12-31T04:35:31.336Z,7.80
2022-12-31T04:37:58.579Z,7.70
2022-12-31T04:40:28.170Z,7.60
2022-12-31T04:42:57.500Z,7.70
2022-12-31T04:45:25.048Z,7.60
2022-12-31T04:47:52.214Z,7.70
2022-12-31T04:50:19.577Z,7.70
2022-12-31T04:52:48.995Z,7.70
2022-12-31T04:55:18.947Z,7.70
2022-12-31T04:57:46.031Z,7.70
2022-12-31T05:00:13.948Z,7.80
2022-12-31T05:02:41.291Z,8.00
2022-12-31T05:05:09.467Z,8.20
2022-12-31T05:07:36.711Z,8.20
2022-12-31T05:10:04.614Z,8.20
2022-12-31T05:12:31.775Z,8.30
2022-12-31T05:14:59.311Z,8.30
2022-12-31T05:17:28.837Z,8.30
2022-12-31T05:19:56.270Z,8.30
2022-12-31T05:22:25.982Z,8.40
2022-12-31T05:24:53.445Z,8.40
2022-12-31T05:27:21.253Z,8.50
2022-12-31T05:29:49.011Z,8.50
2022-12-31T05:32:16.143Z,8.60
2022-12-31T05:34:44.452Z,8.60
2022-12-31T05:37:11.581Z,8.60
2022-12-31T05:39:41.417Z,8.60
2022-12-31T05:42:10.702Z,8.50
2022-12-31T05:44:38.249Z,8.50
2022-12-31T05:47:05.496Z,8.50
2022-12-31T05:49:32.849Z,8.50
2022-12-31T05:52:00.051Z,8.50
2022-12-31T05:54:27.583Z,8.50
2022-12-31T05:56:56.895Z,8.50
2022-12-31T05:59:24.598Z,8.60
2022-12-31T06:01:54.055Z,8.60
2022-12-31T06:04:23.686Z,8.60
2022-12-31T06:06:51.078Z,8.60
2022-12-31T06:09:21.803Z,8.60
2022-12-31T06:11:48.935Z,8.60
2022-12-31T06:14:16.838Z,8.70
2022-12-31T06:16:44.038Z,8.70
2022-12-31T06:19:11.382Z,8.70
2022-12-31T06:21:38.523Z,8.80
2022-12-31T06:24:08.390Z,8.80
2022-12-31T06:26:35.520Z,8.90
2022-12-31T06:29:05.465Z,9.00
2022-12-31T06:31:37.312Z,9.00
2022-12-31T06:34:07.335Z,9.00
2022-12-31T06:36:34.513Z,9.00
2022-12-31T06:39:02.206Z,8.90
2022-12-31T06:41:31.971Z,8.90
2022-12-31T06:43:59.470Z,8.90
2022-12-31T06:46:26.525Z,8.90
2022-12-31T06:48:54.146Z,8.90
2022-12-31T06:51:22.046Z,8.90
2022-12-31T06:53:50.715Z,8.90
2022-12-31T06:56:21.244Z,9.00
2022-12-31T06:58:49.451Z,9.00
2022-12-31T07:01:38.478Z,9.00
2022-12-31T07:04:12.146Z,9.10
2022-12-31T07:06:39.138Z,9.10
2022-12-31T07:09:22.530Z,9.10
2022-12-31T07:12:11.393Z,9.10
2022-12-31T07:15:07.052Z,9.10
2022-12-31T07:18:03.211Z,9.10
2022-12-31T07:20:31.095Z,9.10
2022-12-31T07:22:58.517Z,9.20
2022-12-31T07:25:26.118Z,9.20
2022-12-31T07:28:20.163Z,9.30
2022-12-31T07:30:52.028Z,9.50
2022-12-31T07:33:30.794Z,9.70
2022-12-31T07:36:24.049Z,9.70
2022-12-31T07:39:03.903Z,9.80
2022-12-31T07:41:55.459Z,9.80
2022-12-31T07:44:36.081Z,9.90
2022-12-31T07:47:13.689Z,10.00
2022-12-31T07:49:44.201Z,10.10
2022-12-31T07:52:14.055Z,10.30
2022-12-31T07:54:41.212Z,10.50
2022-12-31T07:57:11.526Z,10.60
2022-12-31T08:00:00.752Z,10.70
2022-12-31T08:02:47.117Z,10.80
2022-12-31T08:05:22.153Z,11.00
2022-12-31T08:07:49.543Z,11.10
2022-12-31T08:10:33.618Z,11.10
2022-12-31T08:13:08.818Z,11.20
2022-12-31T08:15:38.410Z,11.20
2022-12-31T08:18:07.352Z,11.20
2022-12-31T08:20:44.444Z,11.20
2022-12-31T08:23:50.164Z,11.20
2022-12-31T08:26:25.931Z,11.20
2022-12-31T08:29:02.191Z,11.20
2022-12-31T08:31:35.383Z,11.20
2022-12-31T08:34:21.262Z,11.20
2022-12-31T08:37:00.295Z,11.30
2022-12-31T08:39:42.469Z,11.40
2022-12-31T08:42:23.723Z,11.50
2022-12-31T08:44:56.539Z,11.70
2022-12-31T08:47:38.877Z,12.20
2022-12-31T08:50:12.806Z,12.30
2022-12-31T08:52:42.373Z,12.20
2022-12-31T08:55:15.523Z,12.20
2022-12-31T08:58:05.995Z,12.20
2022-12-31T09:00:34.993Z,12.40
2022-12-31T09:03:40.994Z,13.70
2022-12-31T09:06:11.261Z,14.10
2022-12-31T09:08:47.482Z,13.90
2022-12-31T09:11:33.619Z,13.80
2022-12-31T09:14:13.934Z,13.80
2022-12-31T09:16:55.127Z,13.40
2022-12-31T09:19:22.260Z,13.50
2022-12-31T09:21:52.396Z,13.40
2022-12-31T09:24:19.814Z,13.40
2022-12-31T09:27:27.211Z,13.30
2022-12-31T09:30:07.356Z,13.10
2022-12-31T09:33:01.342Z,13.30
2022-12-31T09:35:51.368Z,13.70
2022-12-31T09:38:27.671Z,14.30
2022-12-31T09:41:06.828Z,15.20
2022-12-31T09:43:34.261Z,15.70
2022-12-31T09:46:32.062Z,15.00
2022-12-31T09:49:02.448Z,14.80
2022-12-31T09:51:53.876Z,14.80
2022-12-31T09:54:37.486Z,14.80
2022-12-31T09:57:12.505Z,14.80
2022-12-31T09:59:48.373Z,15.30
2022-12-31T10:02:27.203Z,15.40
2022-12-31T10:05:03.738Z,15.70
2022-12-31T10:07:45.985Z,15.90
2022-12-31T10:10:31.066Z,15.80
2022-12-31T10:13:35.311Z,15.50
2022-12-31T10:16:17.631Z,15.70
2022-12-31T10:19:06.048Z,16.70
2022-12-31T10:21:58.209Z,17.20
2022-12-31T10:24:53.106Z,17.00
2022-12-31T10:27:45.963Z,16.60
2022-12-31T10:30:21.571Z,17.90
2022-12-31T10:33:06.836Z,18.30
2022-12-31T10:36:10.842Z,18.90
2022-12-31T10:39:06.196Z,18.70
2022-12-31T10:41:46.895Z,18.90
2022-12-31T10:44:35.936Z,18.60
2022-12-31T10:47:34.048Z,17.90
2022-12-31T10:50:15.656Z,17.20
2022-12-31T10:52:58.125Z,16.40
2022-12-31T10:55:46.402Z,15.90
2022-12-31T10:58:19.433Z,15.90
2022-12-31T11:00:49.645Z,16.10
2022-12-31T11:03:32.012Z,16.30
2022-12-31T11:06:05.665Z,16.40
2022-12-31T11:08:51.154Z,16.00
2022-12-31T11:11:33.547Z,15.80
2022-12-31T11:14:28.667Z,15.30
2022-12-31T11:16:56.172Z,15.00
2022-12-31T11:19:29.333Z,14.90
2022-12-31T11:22:02.988Z,15.40
2022-12-31T11:24:48.817Z,15.80
2022-12-31T11:27:34.481Z,15.70
2022-12-31T11:30:27.204Z,15.50
2022-12-31T11:33:28.275Z,15.20
2022-12-31T11:36:31.602Z,15.00
2022-12-31T11:39:31.649Z,14.70
2022-12-31T11:42:23.797Z,14.60
2022-12-31T11:45:14.437Z,14.40
2022-12-31T11:48:28.640Z,14.30
2022-12-31T11:50:37.529Z,14.10
2022-12-31T11:53:26.324Z,14.00
2022-12-31T11:56:12.992Z,14.00
2022-12-31T11:58:51.055Z,13.80
2022-12-31T12:01:33.585Z,13.80
2022-12-31T12:04:03.732Z,13.80
2022-12-31T12:06:34.989Z,13.70
2022-12-31T12:09:06.533Z,13.70
2022-12-31T12:11:39.503Z,13.70
2022-12-31T12:14:34.671Z,13.70
2022-12-31T12:17:05.547Z,13.80
2022-12-31T12:19:35.774Z,13.90
2022-12-31T12:22:11.783Z,13.90
2022-12-31T12:24:39.579Z,13.90
2022-12-31T12:27:22.380Z,13.90
2022-12-31T12:29:49.759Z,13.90
2022-12-31T12:32:26.346Z,13.90
2022-12-31T12:34:56.027Z,13.80
2022-12-31T12:37:43.589Z,13.80
2022-12-31T12:40:27.024Z,13.70
2022-12-31T12:42:57.456Z,13.70
2022-12-31T12:45:28.957Z,13.70
2022-12-31T12:48:00.041Z,13.80
2022-12-31T12:50:47.830Z,13.80
2022-12-31T12:53:22.458Z,13.80
2022-12-31T12:56:17.747Z,13.90
2022-12-31T12:58:53.876Z,13.90
2022-12-31T13:01:21.238Z,14.00
2022-12-31T13:04:35.938Z,14.00
2022-12-31T13:07:19.402Z,14.10
2022-12-31T13:10:14.707Z,14.10
2022-12-31T13:13:23.737Z,14.10
2022-12-31T13:15:58.439Z,14.20
2022-12-31T13:19:03.596Z,14.20
2022-12-31T13:22:01.429Z,14.20
2022-12-31T13:25:35.948Z,14.10
2022-12-31T13:28:06.322Z,14.10
2022-12-31T13:30:49.045Z,14.00
2022-12-31T13:33:22.810Z,14.00
2022-12-31T13:35:55.670Z,14.00
2022-12-31T13:38:24.691Z,13.90
2022-12-31T13:41:12.324Z,13.90
2022-12-31T13:43:55.496Z,13.90
2022-12-31T13:46:34.031Z,13.80
2022-12-31T13:49:16.681Z,13.80
2022-12-31T13:51:54.170Z,13.80
2022-12-31T13:54:21.543Z,13.80
2022-12-31T13:56:51.686Z,13.90
2022-12-31T13:59:31.549Z,13.90
2022-12-31T14:02:08.145Z,13.90
2022-12-31T14:04:46.908Z,13.90
2022-12-31T14:07:19.605Z,13.90
2022-12-31T14:09:47.080Z,13.90
2022-12-31T14:12:20.281Z,13.80
2022-12-31T14:15:22.033Z,13.80
2022-12-31T14:18:04.333Z,13.80
2022-12-31T14:20:37.785Z,13.70
2022-12-31T14:23:46.532Z,13.70
2022-12-31T14:26:14.010Z,13.70
2022-12-31T14:28:48.415Z,13.70
2022-12-31T14:31:42.850Z,13.60
2022-12-31T14:34:24.880Z,13.70
2022-12-31T14:37:16.981Z,13.70
2022-12-31T14:40:26.217Z,13.80
2022-12-31T14:43:11.961Z,13.80
2022-12-31T14:45:57.957Z,13.70
2022-12-31T14:48:25.410Z,13.80
2022-12-31T14:50:58.935Z,13.70
2022-12-31T14:53:27.925Z,13.70
2022-12-31T14:56:02.678Z,13.80
2022-12-31T14:58:32.371Z,13.80
2022-12-31T15:01:22.240Z,13.80
2022-12-31T15:03:50.013Z,13.80
2022-12-31T15:06:23.057Z,13.80
2022-12-31T15:09:08.613Z,13.70
2022-12-31T15:12:04.254Z,13.70
2022-12-31T15:14:53.243Z,13.60
2022-12-31T15:17:44.544Z,13.60
2022-12-31T15:20:30.414Z,13.60
2022-12-31T15:22:57.808Z,13.60
2022-12-31T15:25:41.135Z,13.60
2022-12-31T15:28:23.335Z,13.60
2022-12-31T15:30:51.715Z,13.70
2022-12-31T15:33:22.235Z,13.70
2022-12-31T15:35:54.890Z,13.70
2022-12-31T15:38:31.288Z,13.80
2022-12-31T15:41:12.948Z,13.80
2022-12-31T15:43:48.799Z,13.80
2022-12-31T15:46:23.674Z,13.90
2022-12-31T15:49:16.010Z,13.90
2022-12-31T15:51:56.837Z,13.90
2022-12-31T15:54:39.003Z,13.90
2022-12-31T15:57:12.066Z,13.90
2022-12-31T15:59:40.666Z,14.00
2022-12-31T16:02:27.972Z,14.00
2022-12-31T16:04:56.025Z,14.00
2022-12-31T16:07:24.890Z,14.00
2022-12-31T16:09:58.778Z,14.00
2022-12-31T16:12:33.238Z,14.00
2022-12-31T16:15:02.537Z,14.10
2022-12-31T16:17:30.145Z,14.10
2022-12-31T16:19:58.389Z,14.10
2022-12-31T16:22:29.595Z,14.10
2022-12-31T16:27:50.536Z,14.10
2022-12-31T16:30:20.674Z,14.10
2022-12-31T16:32:53.702Z,14.10
2022-12-31T16:35:23.546Z,14.10
2022-12-31T16:38:17.421Z,14.10
2022-12-31T16:41:02.351Z,14.10
2022-12-31T16:43:40.731Z,14.10
2022-12-31T16:46:21.784Z,14.10
2022-12-31T16:49:12.144Z,14.10
2022-12-31T16:51:42.250Z,14.10
2022-12-31T16:54:38.337Z,14.10
2022-12-31T16:57:06.258Z,14.00
2022-12-31T16:59:42.036Z,14.00
2022-12-31T17:02:21.768Z,14.00
2022-12-31T17:04:55.922Z,14.00
2022-12-31T17:07:38.291Z,14.00
2022-12-31T17:10:08.632Z,13.90
2022-12-31T17:13:17.457Z,13.90
2022-12-31T17:15:39.384Z,13.90
2022-12-31T17:18:12.988Z,13.90
2022-12-31T17:20:40.507Z,13.90
2022-12-31T17:23:16.928Z,13.90
2022-12-31T17:25:44.492Z,13.90
2022-12-31T17:28:26.107Z,13.90
2022-12-31T17:31:33.746Z,13.90
2022-12-31T17:34:32.377Z,13.90
2022-12-31T17:37:15.906Z,13.90
2022-12-31T17:39:47.759Z,14.00
2022-12-31T17:42:26.305Z,13.90
2022-12-31T17:44:56.604Z,13.90
2022-12-31T17:47:32.645Z,13.90
2022-12-31T17:50:06.220Z,13.90
2022-12-31T17:52:33.688Z,13.80
2022-12-31T17:55:03.243Z,13.90
2022-12-31T17:57:30.717Z,14.00
2022-12-31T18:00:00.111Z,14.10
2022-12-31T18:02:27.642Z,14.10
2022-12-31T18:04:57.386Z,14.20
2022-12-31T18:07:24.788Z,14.20
2022-12-31T18:09:54.415Z,14.20
2022-12-31T18:12:24.008Z,14.20
2022-12-31T18:14:53.272Z,14.20
2022-12-31T18:17:20.720Z,14.30
2022-12-31T18:20:04.763Z,14.30
2022-12-31T18:22:33.024Z,14.30
2022-12-31T18:25:03.214Z,14.30
2022-12-31T18:27:30.580Z,14.30
2022-12-31T18:30:05.071Z,14.30
2022-12-31T18:32:36.674Z,14.20
2022-12-31T18:35:04.756Z,14.20
2022-12-31T18:37:33.411Z,14.20
2022-12-31T18:40:00.506Z,14.20
2022-12-31T18:42:28.995Z,14.20
2022-12-31T18:44:58.571Z,14.20
2022-12-31T18:47:26.013Z,14.20
2022-12-31T18:49:53.206Z,14.10
2022-12-31T18:52:23.142Z,14.10
2022-12-31T18:54:50.281Z,14.10
2022-12-31T18:57:20.494Z,14.00
2022-12-31T18:59:47.515Z,14.00
2022-12-31T19:02:19.752Z,14.00
2022-12-31T19:04:47.794Z,13.90
2022-12-31T19:07:17.616Z,13.90
2022-12-31T19:09:49.132Z,13.90
2022-12-31T19:12:19.012Z,13.90
2022-12-31T19:14:46.155Z,13.80
2022-12-31T19:17:13.552Z,13.80
2022-12-31T19:19:45.607Z,13.90
2022-12-31T19:22:16.036Z,13.80
2022-12-31T19:24:43.272Z,13.80
2022-12-31T19:27:13.718Z,13.80
2022-12-31T19:29:40.756Z,13.70
2022-12-31T19:32:10.467Z,13.70
2022-12-31T19:34:37.538Z,13.70
2022-12-31T19:37:07.118Z,13.70
2022-12-31T19:39:34.369Z,13.70
2022-12-31T19:42:04.484Z,13.70
2022-12-31T19:44:31.795Z,13.70
2022-12-31T19:46:59.331Z,13.70
2022-12-31T19:49:28.971Z,13.70
2022-12-31T19:51:56.452Z,13.70
2022-12-31T19:54:23.600Z,13.70
2022-12-31T19:56:53.389Z,13.70
2022-12-31T19:59:22.683Z,13.70
2022-12-31T20:01:52.504Z,13.70
2022-12-31T20:04:19.685Z,13.70
2022-12-31T20:06:49.528Z,13.70
2022-12-31T20:09:21.625Z,13.70
2022-12-31T20:11:48.958Z,13.80
2022-12-31T20:14:16.211Z,13.80
2022-12-31T20:16:44.000Z,13.80
2022-12-31T20:19:13.666Z,13.80
2022-12-31T20:21:43.353Z,13.90
2022-12-31T20:24:13.071Z,13.90
2022-12-31T20:26:40.439Z,14.00
2022-12-31T20:29:07.519Z,14.00
2022-12-31T20:31:37.535Z,14.00
2022-12-31T20:34:07.095Z,14.10
2022-12-31T20:36:37.211Z,14.10
2022-12-31T20:39:05.307Z,14.00
2022-12-31T20:41:33.183Z,14.10
2022-12-31T20:44:02.573Z,14.00
2022-12-31T20:46:30.796Z,13.90
2022-12-31T20:49:03.160Z,13.90
2022-12-31T20:51:32.995Z,13.80
2022-12-31T20:54:03.369Z,13.70
2022-12-31T20:56:35.594Z,13.60
2022-12-31T20:59:04.414Z,13.50
2022-12-31T21:02:11.132Z,13.50
2022-12-31T21:04:19.845Z,13.40
2022-12-31T21:06:49.758Z,13.40
2022-12-31T21:09:19.312Z,13.30
2022-12-31T21:11:46.911Z,13.30
2022-12-31T21:14:16.342Z,13.20
2022-12-31T21:16:46.246Z,13.20
2022-12-31T21:19:13.459Z,13.30
2022-12-31T21:21:40.822Z,13.40
2022-12-31T21:24:08.287Z,13.40
2022-12-31T21:26:35.838Z,13.40
2022-12-31T21:29:02.917Z,13.50
2022-12-31T21:31:30.339Z,13.50
2022-12-31T21:33:59.819Z,13.60
2022-12-31T21:36:27.189Z,13.70
2022-12-31T21:38:54.221Z,13.80
2022-12-31T21:41:24.170Z,13.90
2022-12-31T21:43:51.335Z,14.00
2022-12-31T21:46:18.722Z,14.00
2022-12-31T21:48:48.560Z,14.00
2022-12-31T21:51:16.278Z,14.10
2022-12-31T21:53:45.855Z,14.20
2022-12-31T21:56:13.285Z,14.20
2022-12-31T21:58:42.685Z,14.20
2022-12-31T22:01:19.403Z,14.30
2022-12-31T22:03:49.229Z,14.30
2022-12-31T22:06:22.387Z,14.30
2022-12-31T22:08:55.190Z,14.30
2022-12-31T22:11:26.029Z,14.30
2022-12-31T22:13:54.275Z,14.30
2022-12-31T22:16:22.533Z,14.30
2022-12-31T22:18:50.228Z,14.40
2022-12-31T22:21:20.838Z,14.40
2022-12-31T22:23:50.387Z,14.40
2022-12-31T22:26:19.876Z,14.60
2022-12-31T22:28:47.827Z,14.60
2022-12-31T22:31:20.635Z,14.50
2022-12-31T22:33:50.867Z,14.50
2022-12-31T22:36:23.348Z,14.40
2022-12-31T22:38:54.082Z,14.40
2022-12-31T22:41:23.074Z,14.40
2022-12-31T22:43:55.962Z,14.40
2022-12-31T22:46:28.772Z,14.40
2022-12-31T22:49:00.506Z,14.40
2022-12-31T22:51:56.391Z,14.40
2022-12-31T22:54:21.056Z,14.40
2022-12-31T22:56:48.442Z,14.50
2022-12-31T22:59:15.535Z,14.50
2022-12-31T23:01:43.246Z,14.50
2022-12-31T23:04:10.389Z,14.50
2022-12-31T23:06:40.075Z,14.50
2022-12-31T23:09:13.587Z,14.50
2022-12-31T23:11:43.940Z,14.60
2022-12-31T23:14:16.991Z,14.50
2022-12-31T23:16:47.231Z,14.50
2022-12-31T23:19:16.037Z,14.40
2022-12-31T23:21:43.605Z,14.50
2022-12-31T23:24:19.066Z,14.50
2022-12-31T23:26:49.138Z,14.40
2022-12-31T23:29:18.392Z,14.50
2022-12-31T23:31:45.749Z,14.60
2022-12-31T23:34:13.042Z,14.60
2022-12-31T23:36:40.348Z,14.60
2022-12-31T23:39:07.550Z,14.60
2022-12-31T23:41:34.997Z,14.60
2022-12-31T23:44:04.638Z,14.70
2022-12-31T23:46:34.480Z,14.80
2022-12-31T23:49:01.882Z,14.80
2022-12-31T23:51:29.277Z,14.70
2022-12-31T23:53:56.379Z,14.70
2022-12-31T23:56:24.363Z,14.70
2022-12-31T23:58:58.904Z,14.70
